createdAt,value
2019-05-06T00:02:16.074Z,5.03
2019-05-06T00:04:45.688Z,5.23
2019-05-06T00:07:15.464Z,5.32
2019-05-06T00:09:45.148Z,5.36
2019-05-06T00:12:14.922Z,5.26
2019-05-06T00:14:44.602Z,5.23
2019-05-06T00:17:14.602Z,5.16
2019-05-06T00:19:44.761Z,4.82
2019-05-06T00:22:14.627Z,4.64
2019-05-06T00:25:00.938Z,4.37
2019-05-06T00:27:34.175Z,4.13
2019-05-06T00:30:04.622Z,4.11
2019-05-06T00:32:34.795Z,4.22
2019-05-06T00:35:06.476Z,4.11
2019-05-06T00:37:36.161Z,4.27
2019-05-06T00:40:08.928Z,4.37
2019-05-06T00:42:40.187Z,4.42
2019-05-06T00:45:10.425Z,4.52
2019-05-06T00:47:40.033Z,4.60
2019-05-06T00:50:10.279Z,4.67
2019-05-06T00:52:40.173Z,4.44
2019-05-06T00:55:10.051Z,4.51
2019-05-06T00:57:45.480Z,4.36
2019-05-06T01:00:18.428Z,4.29
2019-05-06T01:02:48.157Z,4.31
2019-05-06T01:05:18.650Z,4.21
2019-05-06T01:07:48.299Z,4.43
2019-05-06T01:10:18.702Z,4.14
2019-05-06T01:12:54.440Z,3.98
2019-05-06T01:15:25.969Z,3.88
2019-05-06T01:17:55.612Z,4.10
2019-05-06T01:20:25.225Z,4.12
2019-05-06T01:22:54.866Z,3.89
2019-05-06T01:25:24.619Z,4.06
2019-05-06T01:27:54.271Z,4.20
2019-05-06T01:30:24.416Z,4.18
2019-05-06T01:32:54.474Z,4.23
2019-05-06T01:35:24.639Z,4.06
2019-05-06T01:38:14.572Z,4.10
2019-05-06T01:41:01.144Z,4.15
2019-05-06T01:43:35.051Z,3.90
2019-05-06T01:46:04.797Z,3.55
2019-05-06T01:48:49.558Z,3.36
2019-05-06T01:51:23.883Z,3.81
2019-05-06T01:53:54.449Z,3.94
2019-05-06T01:56:24.338Z,4.12
2019-05-06T01:58:53.992Z,3.85
2019-05-06T02:01:25.042Z,4.18
2019-05-06T02:03:54.979Z,4.07
2019-05-06T02:06:25.043Z,3.99
2019-05-06T02:08:55.020Z,3.78
2019-05-06T02:11:24.808Z,4.03
2019-05-06T02:13:54.448Z,3.81
2019-05-06T02:16:24.196Z,4.03
2019-05-06T02:18:54.161Z,4.09
2019-05-06T02:21:29.675Z,3.93
2019-05-06T02:24:00.962Z,3.77
2019-05-06T02:26:30.571Z,3.79
2019-05-06T02:29:04.161Z,3.97
2019-05-06T02:31:50.610Z,3.96
2019-05-06T02:34:25.465Z,3.62
2019-05-06T02:37:06.388Z,3.72
2019-05-06T02:39:36.179Z,3.57
2019-05-06T02:42:08.173Z,3.43
2019-05-06T02:44:37.882Z,3.77
2019-05-06T02:47:09.195Z,3.82
2019-05-06T02:49:40.473Z,4.02
2019-05-06T02:52:10.172Z,3.78
2019-05-06T02:54:42.541Z,3.69
2019-05-06T02:57:13.254Z,3.62
2019-05-06T02:59:44.215Z,3.72
2019-05-06T03:02:14.311Z,3.65
2019-05-06T03:04:44.149Z,3.79
2019-05-06T03:07:14.699Z,3.50
2019-05-06T03:09:44.716Z,3.25
2019-05-06T03:12:14.389Z,3.61
2019-05-06T03:14:45.540Z,3.68
2019-05-06T03:17:15.185Z,3.71
2019-05-06T03:19:46.437Z,3.71
2019-05-06T03:22:29.757Z,3.90
2019-05-06T03:25:06.206Z,3.79
2019-05-06T03:27:32.956Z,3.91
2019-05-06T03:30:04.028Z,3.99
2019-05-06T03:32:41.303Z,4.10
2019-05-06T03:35:29.840Z,3.86
2019-05-06T03:37:38.937Z,3.81
2019-05-06T03:40:08.813Z,3.64
2019-05-06T03:42:38.428Z,3.81
2019-05-06T03:45:13.160Z,3.92
2019-05-06T03:47:43.956Z,3.91
2019-05-06T03:50:13.935Z,3.81
2019-05-06T03:52:44.860Z,3.41
2019-05-06T03:55:14.860Z,3.80
2019-05-06T03:57:45.490Z,3.99
2019-05-06T04:00:16.598Z,4.07
2019-05-06T04:02:46.364Z,4.03
2019-05-06T04:05:17.226Z,3.93
2019-05-06T04:07:48.293Z,4.17
2019-05-06T04:10:18.182Z,3.97
2019-05-06T04:12:53.516Z,3.59
2019-05-06T04:15:26.835Z,3.54
2019-05-06T04:17:58.454Z,3.59
2019-05-06T04:20:39.130Z,3.53
2019-05-06T04:23:24.983Z,3.84
2019-05-06T04:25:56.660Z,3.91
2019-05-06T04:28:27.919Z,4.03
2019-05-06T04:30:58.761Z,4.11
2019-05-06T04:33:28.469Z,4.18
2019-05-06T04:35:58.148Z,4.23
2019-05-06T04:38:28.058Z,4.24
2019-05-06T04:40:57.809Z,4.25
2019-05-06T04:43:27.515Z,3.92
2019-05-06T04:45:57.186Z,4.09
2019-05-06T04:48:26.979Z,4.19
2019-05-06T04:50:56.758Z,4.25
2019-05-06T04:53:27.108Z,4.26
2019-05-06T04:55:56.991Z,4.29
2019-05-06T04:58:27.818Z,4.28
2019-05-06T05:00:57.831Z,4.37
2019-05-06T05:03:27.819Z,4.37
2019-05-06T05:05:57.526Z,4.46
2019-05-06T05:08:39.213Z,4.44
2019-05-06T05:11:12.899Z,4.41
2019-05-06T05:13:44.307Z,4.37
2019-05-06T05:16:15.739Z,4.34
2019-05-06T05:18:50.297Z,4.01
2019-05-06T05:21:20.017Z,3.97
2019-05-06T05:23:49.708Z,4.20
2019-05-06T05:26:19.996Z,4.10
2019-05-06T05:28:49.980Z,4.36
2019-05-06T05:31:19.711Z,4.10
2019-05-06T05:33:49.400Z,4.27
2019-05-06T05:36:20.181Z,4.43
2019-05-06T05:38:52.213Z,4.26
2019-05-06T05:41:23.309Z,4.46
2019-05-06T05:43:54.993Z,4.32
2019-05-06T05:46:24.880Z,4.23
2019-05-06T05:48:54.361Z,4.09
2019-05-06T05:51:24.043Z,4.40
2019-05-06T05:53:54.705Z,4.35
2019-05-06T05:56:24.632Z,4.47
2019-05-06T05:58:54.331Z,4.54
2019-05-06T06:01:25.291Z,4.56
2019-05-06T06:03:55.381Z,4.61
2019-05-06T06:06:25.529Z,4.40
2019-05-06T06:08:55.482Z,4.58
2019-05-06T06:11:26.764Z,4.83
2019-05-06T06:13:58.092Z,5.02
2019-05-06T06:16:35.196Z,5.09
2019-05-06T06:19:22.997Z,5.27
2019-05-06T06:22:02.609Z,5.30
2019-05-06T06:24:33.731Z,5.05
2019-05-06T06:27:03.440Z,5.06
2019-05-06T06:29:33.388Z,5.10
2019-05-06T06:32:13.896Z,5.28
2019-05-06T06:34:48.429Z,5.25
2019-05-06T06:37:17.960Z,5.33
2019-05-06T06:39:49.701Z,5.29
2019-05-06T06:42:19.416Z,5.44
2019-05-06T06:44:49.093Z,5.43
2019-05-06T06:47:19.227Z,5.50
2019-05-06T06:49:49.011Z,5.32
2019-05-06T06:52:19.539Z,5.39
2019-05-06T06:54:49.452Z,5.41
2019-05-06T06:57:21.786Z,5.48
2019-05-06T06:59:53.669Z,5.71
2019-05-06T07:02:32.806Z,5.78
2019-05-06T07:05:24.467Z,5.92
2019-05-06T07:07:47.447Z,5.92
2019-05-06T07:10:34.233Z,5.94
2019-05-06T07:13:03.983Z,6.00
2019-05-06T07:15:33.882Z,6.06
2019-05-06T07:18:03.751Z,6.11
2019-05-06T07:20:39.329Z,6.25
2019-05-06T07:23:25.054Z,6.37
2019-05-06T07:25:55.605Z,6.53
2019-05-06T07:28:26.228Z,6.55
2019-05-06T07:30:56.509Z,6.66
2019-05-06T07:33:26.285Z,6.77
2019-05-06T07:35:56.048Z,6.97
2019-05-06T07:38:25.690Z,7.02
2019-05-06T07:40:56.966Z,7.13
2019-05-06T07:43:43.547Z,7.17
2019-05-06T07:46:15.685Z,7.16
2019-05-06T07:48:45.341Z,7.30
2019-05-06T07:51:14.943Z,7.32
2019-05-06T07:53:44.652Z,7.49
2019-05-06T07:56:14.333Z,7.64
2019-05-06T07:58:43.972Z,7.81
2019-05-06T08:01:13.936Z,7.85
2019-05-06T08:03:43.932Z,8.01
2019-05-06T08:06:13.545Z,8.08
2019-05-06T08:08:43.638Z,8.19
2019-05-06T08:11:13.522Z,8.22
2019-05-06T08:13:43.612Z,8.18
2019-05-06T08:16:13.450Z,8.02
2019-05-06T08:18:43.143Z,8.13
2019-05-06T08:21:14.496Z,8.06
2019-05-06T08:23:48.873Z,7.97
2019-05-06T08:26:18.561Z,7.98
2019-05-06T08:28:48.200Z,7.81
2019-05-06T08:31:19.533Z,7.85
2019-05-06T08:33:49.238Z,7.91
2019-05-06T08:36:23.005Z,7.93
2019-05-06T08:39:06.265Z,7.78
2019-05-06T08:41:35.877Z,7.73
2019-05-06T08:44:06.686Z,7.70
2019-05-06T08:46:36.321Z,7.62
2019-05-06T08:49:06.024Z,7.58
2019-05-06T08:51:47.230Z,7.55
2019-05-06T08:54:32.471Z,7.58
2019-05-06T08:57:02.658Z,7.60
2019-05-06T08:59:32.414Z,7.60
2019-05-06T09:02:03.577Z,7.67
2019-05-06T09:04:33.217Z,7.72
2019-05-06T09:07:03.083Z,7.66
2019-05-06T09:09:32.804Z,7.70
2019-05-06T09:12:02.861Z,7.58
2019-05-06T09:14:32.926Z,7.63
2019-05-06T09:17:03.131Z,7.62
2019-05-06T09:19:33.311Z,7.66
2019-05-06T09:22:03.327Z,7.68
2019-05-06T09:24:33.014Z,7.77
2019-05-06T09:27:04.301Z,7.79
2019-05-06T09:29:47.640Z,7.81
2019-05-06T09:32:24.597Z,7.77
2019-05-06T09:34:56.214Z,7.78
2019-05-06T09:37:25.872Z,7.75
2019-05-06T09:39:55.492Z,7.63
2019-05-06T09:42:25.312Z,7.68
2019-05-06T09:44:54.963Z,7.71
2019-05-06T09:47:26.290Z,7.64
2019-05-06T09:49:55.936Z,7.64
2019-05-06T09:52:25.552Z,7.66
2019-05-06T09:55:08.731Z,7.67
2019-05-06T09:57:55.913Z,7.77
2019-05-06T10:00:28.130Z,7.84
2019-05-06T10:02:58.055Z,7.75
2019-05-06T10:05:27.760Z,7.72
2019-05-06T10:07:57.390Z,7.78
2019-05-06T10:10:27.264Z,7.93
2019-05-06T10:12:57.123Z,7.83
2019-05-06T10:15:26.927Z,7.84
2019-05-06T10:18:09.337Z,7.68
2019-05-06T10:20:43.022Z,7.74
2019-05-06T10:23:14.404Z,7.58
2019-05-06T10:25:44.704Z,7.68
2019-05-06T10:28:19.803Z,7.64
2019-05-06T10:30:49.495Z,7.68
2019-05-06T10:33:23.544Z,7.69
2019-05-06T10:35:53.205Z,7.65
2019-05-06T10:38:49.413Z,7.50
2019-05-06T10:41:26.615Z,7.72
2019-05-06T10:44:06.385Z,7.85
2019-05-06T10:46:36.000Z,7.91
2019-05-06T10:49:05.711Z,8.02
2019-05-06T10:51:35.111Z,8.08
2019-05-06T10:54:05.254Z,8.20
2019-05-06T10:56:49.091Z,8.04
2019-05-06T10:59:13.808Z,8.16
2019-05-06T11:01:45.899Z,8.44
2019-05-06T11:04:15.535Z,8.57
2019-05-06T11:06:45.162Z,8.64
2019-05-06T11:09:14.833Z,8.63
2019-05-06T11:11:44.446Z,8.81
2019-05-06T11:14:14.098Z,8.98
2019-05-06T11:16:43.774Z,8.91
2019-05-06T11:19:13.460Z,8.98
2019-05-06T11:21:45.078Z,8.99
2019-05-06T11:24:14.446Z,9.07
2019-05-06T11:26:44.084Z,9.24
2019-05-06T11:29:33.890Z,9.40
2019-05-06T11:32:17.733Z,9.42
2019-05-06T11:34:48.991Z,9.72
2019-05-06T11:37:23.203Z,9.99
2019-05-06T11:39:53.076Z,10.26
2019-05-06T11:42:29.037Z,10.71
2019-05-06T11:44:54.399Z,10.92
2019-05-06T11:47:24.046Z,10.94
2019-05-06T11:49:56.484Z,11.27
2019-05-06T11:52:26.848Z,11.68
2019-05-06T11:54:56.511Z,11.91
2019-05-06T11:57:26.211Z,11.92
2019-05-06T11:59:55.861Z,11.91
2019-05-06T12:02:27.210Z,11.58
2019-05-06T12:04:56.910Z,11.48
2019-05-06T12:07:26.564Z,11.27
2019-05-06T12:09:56.325Z,11.15
2019-05-06T12:12:25.939Z,11.02
2019-05-06T12:14:55.642Z,10.71
2019-05-06T12:17:25.266Z,10.74
2019-05-06T12:19:54.892Z,10.72
2019-05-06T12:22:26.356Z,10.62
2019-05-06T12:24:55.984Z,10.49
2019-05-06T12:27:43.223Z,10.24
2019-05-06T12:30:14.903Z,10.09
2019-05-06T12:32:46.183Z,10.03
2019-05-06T12:35:15.868Z,9.94
2019-05-06T12:37:47.151Z,10.02
2019-05-06T12:40:17.409Z,10.07
2019-05-06T12:42:48.717Z,10.09
2019-05-06T12:45:25.931Z,10.09
2019-05-06T12:47:59.700Z,10.17
2019-05-06T12:50:29.328Z,10.15
2019-05-06T12:52:59.025Z,10.13
2019-05-06T12:55:28.676Z,10.29
2019-05-06T12:57:58.308Z,10.30
2019-05-06T13:00:30.132Z,10.38
2019-05-06T13:03:02.102Z,10.47
2019-05-06T13:05:31.956Z,10.71
2019-05-06T13:08:05.617Z,10.74
2019-05-06T13:10:33.647Z,11.04
2019-05-06T13:13:04.051Z,11.69
2019-05-06T13:15:33.826Z,12.37
2019-05-06T13:18:07.211Z,12.98
2019-05-06T13:20:36.227Z,13.18
2019-05-06T13:23:17.433Z,12.96
2019-05-06T13:25:45.512Z,12.55
2019-05-06T13:28:16.452Z,12.06
2019-05-06T13:30:46.173Z,11.89
2019-05-06T13:33:34.385Z,11.66
2019-05-06T13:36:04.437Z,11.58
2019-05-06T13:38:34.152Z,11.33
2019-05-06T13:41:03.844Z,11.21
2019-05-06T13:43:35.151Z,11.21
2019-05-06T13:46:07.296Z,11.00
2019-05-06T13:48:37.623Z,10.93
2019-05-06T13:51:08.910Z,10.83
2019-05-06T13:53:41.773Z,10.95
2019-05-06T13:56:12.095Z,10.64
2019-05-06T13:58:43.053Z,10.58
2019-05-06T14:01:14.927Z,10.50
2019-05-06T14:03:44.570Z,10.40
2019-05-06T14:06:14.220Z,10.40
2019-05-06T14:08:43.840Z,10.53
2019-05-06T14:11:13.487Z,10.29
2019-05-06T14:13:43.190Z,10.35
2019-05-06T14:16:13.240Z,10.34
2019-05-06T14:18:42.972Z,10.37
2019-05-06T14:21:12.598Z,10.33
2019-05-06T14:23:42.229Z,10.44
2019-05-06T14:26:13.499Z,10.65
2019-05-06T14:28:44.829Z,10.69
2019-05-06T14:31:18.638Z,10.60
2019-05-06T14:33:48.276Z,10.61
2019-05-06T14:36:17.910Z,10.70
2019-05-06T14:38:47.569Z,10.59
2019-05-06T14:41:18.858Z,10.55
2019-05-06T14:43:48.563Z,10.50
2019-05-06T14:46:18.249Z,10.41
2019-05-06T14:48:48.061Z,10.45
2019-05-06T14:51:17.851Z,10.26
2019-05-06T14:53:47.543Z,10.23
2019-05-06T14:56:22.611Z,10.24
2019-05-06T14:59:04.753Z,10.40
2019-05-06T15:01:35.948Z,10.42
2019-05-06T15:04:06.225Z,10.37
2019-05-06T15:06:35.929Z,10.42
2019-05-06T15:09:08.058Z,10.39
2019-05-06T15:11:37.806Z,10.56
2019-05-06T15:14:07.571Z,10.78
2019-05-06T15:16:37.236Z,10.95
2019-05-06T15:19:06.830Z,11.56
2019-05-06T15:21:38.761Z,11.98
2019-05-06T15:24:08.081Z,12.14
2019-05-06T15:26:37.750Z,12.24
2019-05-06T15:29:07.363Z,12.51
2019-05-06T15:31:52.701Z,12.56
2019-05-06T15:34:26.062Z,12.46
2019-05-06T15:36:57.351Z,12.55
2019-05-06T15:39:26.977Z,12.44
2019-05-06T15:41:56.652Z,12.36
2019-05-06T15:44:26.289Z,12.08
2019-05-06T15:46:55.903Z,12.03
2019-05-06T15:49:25.554Z,11.94
2019-05-06T15:51:55.174Z,11.82
2019-05-06T15:54:24.823Z,11.84
2019-05-06T15:56:54.451Z,11.81
2019-05-06T15:59:24.120Z,11.94
2019-05-06T16:01:53.752Z,12.20
2019-05-06T16:04:23.404Z,12.35
2019-05-06T16:06:53.161Z,12.27
2019-05-06T16:09:23.352Z,12.03
2019-05-06T16:11:53.608Z,12.01
2019-05-06T16:14:23.402Z,11.77
2019-05-06T16:16:53.069Z,11.73
2019-05-06T16:19:23.121Z,11.60
2019-05-06T16:21:52.826Z,11.68
2019-05-06T16:24:26.572Z,11.54
2019-05-06T16:26:56.287Z,11.21
2019-05-06T16:29:37.727Z,11.18
2019-05-06T16:32:09.183Z,11.02
2019-05-06T16:34:38.941Z,10.85
2019-05-06T16:37:08.663Z,10.88
2019-05-06T16:39:38.277Z,10.84
2019-05-06T16:42:08.661Z,10.78
2019-05-06T16:44:38.291Z,10.77
2019-05-06T16:47:08.031Z,10.76
2019-05-06T16:49:37.649Z,10.73
2019-05-06T16:52:07.277Z,10.68
2019-05-06T16:54:36.919Z,10.74
2019-05-06T16:57:10.882Z,10.73
2019-05-06T16:59:42.429Z,10.72
2019-05-06T17:02:13.996Z,10.75
2019-05-06T17:04:45.397Z,10.76
2019-05-06T17:07:15.012Z,10.78
2019-05-06T17:09:44.656Z,10.77
2019-05-06T17:12:14.426Z,10.76
2019-05-06T17:14:47.297Z,10.76
2019-05-06T17:17:16.918Z,10.79
2019-05-06T17:19:46.581Z,10.79
2019-05-06T17:22:16.194Z,10.76
2019-05-06T17:24:48.475Z,10.73
2019-05-06T17:27:17.266Z,10.72
2019-05-06T17:29:51.331Z,10.72
2019-05-06T17:32:28.399Z,10.70
2019-05-06T17:34:59.565Z,10.67
2019-05-06T17:37:47.145Z,10.63
2019-05-06T17:40:19.216Z,10.59
2019-05-06T17:42:48.860Z,10.54
2019-05-06T17:45:37.102Z,10.51
2019-05-06T17:48:27.580Z,10.47
2019-05-06T17:51:09.623Z,10.45
2019-05-06T17:53:42.791Z,10.40
2019-05-06T17:56:12.726Z,10.44
2019-05-06T17:58:42.593Z,10.42
2019-05-06T18:01:14.428Z,10.52
2019-05-06T18:03:44.215Z,10.44
2019-05-06T18:06:14.447Z,10.36
2019-05-06T18:08:44.235Z,10.32
2019-05-06T18:11:13.921Z,10.28
2019-05-06T18:13:43.544Z,10.27
2019-05-06T18:16:13.347Z,10.21
2019-05-06T18:18:45.911Z,10.30
2019-05-06T18:21:15.566Z,10.26
2019-05-06T18:23:45.184Z,10.17
2019-05-06T18:26:14.927Z,10.13
2019-05-06T18:28:44.604Z,10.10
2019-05-06T18:31:14.291Z,10.12
2019-05-06T18:33:43.937Z,10.08
2019-05-06T18:36:13.630Z,10.05
2019-05-06T18:38:43.274Z,10.07
2019-05-06T18:41:13.364Z,10.08
2019-05-06T18:43:43.011Z,10.03
2019-05-06T18:46:12.616Z,10.04
2019-05-06T18:48:42.829Z,9.97
2019-05-06T18:51:12.749Z,9.93
2019-05-06T18:53:42.388Z,9.90
2019-05-06T18:56:12.746Z,9.91
2019-05-06T18:58:42.983Z,10.01
2019-05-06T19:01:13.258Z,9.86
2019-05-06T19:04:00.163Z,9.94
2019-05-06T19:06:29.861Z,9.87
2019-05-06T19:09:02.589Z,9.82
2019-05-06T19:11:32.730Z,9.89
2019-05-06T19:14:02.549Z,9.79
2019-05-06T19:16:48.222Z,9.73
2019-05-06T19:19:05.811Z,9.67
2019-05-06T19:21:34.891Z,9.71
2019-05-06T19:24:04.674Z,9.77
2019-05-06T19:26:34.344Z,9.68
2019-05-06T19:29:04.632Z,9.64
2019-05-06T19:31:34.744Z,9.62
2019-05-06T19:34:04.504Z,9.60
2019-05-06T19:36:34.847Z,9.61
2019-05-06T19:39:06.075Z,9.57
2019-05-06T19:41:35.765Z,9.55
2019-05-06T19:44:05.613Z,9.57
2019-05-06T19:46:35.223Z,9.59
2019-05-06T19:49:04.863Z,9.54
2019-05-06T19:51:34.688Z,9.49
2019-05-06T19:54:04.398Z,9.44
2019-05-06T19:56:34.013Z,9.44
2019-05-06T19:59:03.666Z,9.43
2019-05-06T20:01:33.285Z,9.41
2019-05-06T20:04:03.061Z,9.42
2019-05-06T20:06:40.201Z,9.36
2019-05-06T20:09:15.117Z,9.36
2019-05-06T20:11:45.728Z,9.37
2019-05-06T20:14:15.390Z,9.29
2019-05-06T20:16:45.080Z,9.26
2019-05-06T20:19:29.712Z,9.22
2019-05-06T20:21:46.075Z,9.25
2019-05-06T20:24:15.692Z,9.20
2019-05-06T20:26:45.395Z,9.19
2019-05-06T20:29:15.047Z,9.15
2019-05-06T20:31:44.756Z,9.14
2019-05-06T20:34:14.448Z,9.13
2019-05-06T20:36:44.099Z,9.12
2019-05-06T20:39:13.725Z,9.13
2019-05-06T20:41:43.505Z,9.17
2019-05-06T20:44:13.125Z,9.10
2019-05-06T20:46:43.009Z,9.13
2019-05-06T20:49:13.262Z,9.09
2019-05-06T20:51:42.956Z,9.06
2019-05-06T20:54:13.065Z,9.07
2019-05-06T20:56:42.869Z,9.00
2019-05-06T20:59:12.523Z,8.96
2019-05-06T21:01:42.597Z,8.98
2019-05-06T21:04:13.054Z,8.98
2019-05-06T21:06:42.961Z,8.96
2019-05-06T21:09:12.776Z,8.88
2019-05-06T21:11:42.917Z,8.81
2019-05-06T21:14:13.279Z,8.75
2019-05-06T21:16:43.054Z,8.70
2019-05-06T21:19:12.840Z,8.79
2019-05-06T21:21:43.123Z,8.74
2019-05-06T21:24:13.255Z,8.70
2019-05-06T21:26:46.235Z,8.70
2019-05-06T21:29:14.274Z,8.71
2019-05-06T21:31:43.911Z,8.68
2019-05-06T21:34:13.528Z,8.61
2019-05-06T21:36:43.165Z,8.63
2019-05-06T21:39:13.203Z,8.57
2019-05-06T21:41:42.955Z,8.52
2019-05-06T21:44:13.353Z,8.54
2019-05-06T21:46:43.206Z,8.53
2019-05-06T21:49:12.881Z,8.47
2019-05-06T21:51:42.821Z,8.41
2019-05-06T21:54:12.836Z,8.40
2019-05-06T21:56:42.662Z,8.38
2019-05-06T21:59:12.966Z,8.33
2019-05-06T22:01:43.386Z,8.28
2019-05-06T22:04:13.151Z,8.14
2019-05-06T22:06:45.527Z,8.01
2019-05-06T22:09:14.652Z,7.84
2019-05-06T22:11:44.263Z,7.86
2019-05-06T22:14:13.900Z,7.99
2019-05-06T22:16:43.831Z,7.73
2019-05-06T22:19:13.625Z,7.68
2019-05-06T22:21:53.830Z,7.50
2019-05-06T22:24:25.913Z,7.42
2019-05-06T22:26:55.519Z,7.39
2019-05-06T22:29:25.136Z,7.34
2019-05-06T22:31:54.769Z,7.18
2019-05-06T22:34:24.389Z,7.07
2019-05-06T22:36:54.297Z,7.10
2019-05-06T22:39:24.594Z,7.09
2019-05-06T22:41:54.239Z,7.32
2019-05-06T22:44:23.870Z,7.28
2019-05-06T22:46:53.515Z,7.40
2019-05-06T22:49:23.573Z,7.37
2019-05-06T22:51:53.213Z,7.41
2019-05-06T22:54:24.625Z,7.33
2019-05-06T22:56:54.627Z,7.32
2019-05-06T22:59:24.614Z,7.55
2019-05-06T23:02:05.081Z,7.56
2019-05-06T23:04:38.755Z,7.40
2019-05-06T23:07:08.367Z,7.33
2019-05-06T23:09:38.008Z,7.38
2019-05-06T23:12:07.625Z,7.24
2019-05-06T23:14:37.420Z,7.25
2019-05-06T23:17:07.051Z,7.31
2019-05-06T23:19:36.710Z,7.35
2019-05-06T23:22:06.793Z,7.35
2019-05-06T23:24:36.402Z,7.38
2019-05-06T23:27:06.110Z,7.33
2019-05-06T23:29:35.798Z,7.38
2019-05-06T23:32:05.511Z,7.39
2019-05-06T23:34:35.211Z,7.25
2019-05-06T23:37:12.969Z,7.32
2019-05-06T23:40:39.007Z,7.24
2019-05-06T23:43:44.183Z,7.32
2019-05-06T23:47:08.338Z,7.14
2019-05-06T23:50:32.629Z,7.25
2019-05-06T23:53:56.796Z,7.20
2019-05-06T23:56:44.175Z,7.25
2019-05-06T23:59:17.930Z,7.15
